Time;durP1;ratioP1;P1;durP2;ratioP2;P2;SDS_P1;SDS_P2;PMS_P1;PMS_P2;Temp;Humidity;BMP_temperature;BMP_pressure;BME280_temperature;BME280_humidity;BME280_pressure;Samples;Min_cycle;Max_cycle;Signal;HPM_P1;HPM_P2
2021/09/14 00:02:03;;;;;;;5.45;4.97;;;;;;;;;;5033915;28;20176;-85
2021/09/14 00:04:30;;;;;;;5.78;4.95;;;;;;;;;;5032647;28;20212;-85
2021/09/14 00:06:57;;;;;;;5.68;5.13;;;;;;;;;;5033954;28;20208;-86
2021/09/14 00:09:24;;;;;;;5.07;4.68;;;;;;;;;;5033685;28;20592;-86
2021/09/14 00:11:51;;;;;;;8.35;5.82;;;;;;;;;;5033426;28;20219;-85
2021/09/14 00:14:17;;;;;;;5.63;5.13;;;;;;;;;;5032078;28;20266;-86
2021/09/14 00:16:44;;;;;;;5.50;5.00;;;;;;;;;;5033892;28;20260;-86
2021/09/14 00:19:12;;;;;;;5.82;5.32;;;;;;;;;;5032346;28;20600;-86
2021/09/14 00:21:39;;;;;;;9.65;5.45;;;;;;;;;;5032318;28;20200;-86
2021/09/14 00:24:05;;;;;;;5.72;5.20;;;;;;;;;;5032158;28;20243;-85
2021/09/14 00:26:32;;;;;;;5.07;4.65;;;;;;;;;;5032081;28;20256;-86
2021/09/14 00:29:00;;;;;;;6.13;5.50;;;;;;;;;;5032532;28;20245;-86
2021/09/14 00:31:27;;;;;;;6.03;5.32;;;;;;;;;;5032528;28;20632;-85
2021/09/14 00:33:53;;;;;;;6.47;5.55;;;;;;;;;;5032273;28;20204;-86
2021/09/14 00:36:21;;;;;;;5.50;5.10;;;;;;;;;;5033051;28;20249;-87
2021/09/14 00:38:48;;;;;;;6.23;5.67;;;;;;;;;;5034544;28;20181;-86
2021/09/14 00:41:15;;;;;;;6.10;5.60;;;;;;;;;;5033893;28;20212;-86
2021/09/14 00:43:41;;;;;;;7.15;5.10;;;;;;;;;;5031741;28;20212;-85
2021/09/14 00:46:08;;;;;;;6.28;5.40;;;;;;;;;;5031540;28;20254;-86
2021/09/14 00:48:35;;;;;;;6.23;5.37;;;;;;;;;;5031315;28;20192;-85
2021/09/14 00:51:02;;;;;;;6.50;5.90;;;;;;;;;;5032583;28;20216;-86
2021/09/14 00:53:30;;;;;;;6.37;5.87;;;;;;;;;;5031704;28;20192;-86
2021/09/14 00:55:57;;;;;;;6.32;5.65;;;;;;;;;;5032655;28;20278;-86
2021/09/14 00:58:24;;;;;;;5.97;5.43;;;;;;;;;;5032844;28;20200;-87
2021/09/14 01:00:51;;;;;;;6.27;5.67;;;;;;;;;;5032729;28;20200;-86
2021/09/14 01:03:18;;;;;;;6.03;5.53;;;;;;;;;;5033660;28;20208;-86
2021/09/14 01:05:45;;;;;;;5.77;5.33;;;;;;;;;;5031914;28;20258;-86
2021/09/14 01:08:11;;;;;;;6.20;5.57;;;;;;;;;;5032307;28;20709;-87
2021/09/14 01:10:39;;;;;;;6.10;5.23;;;;;;;;;;5033565;28;20218;-86
2021/09/14 01:13:06;;;;;;;6.83;5.60;;;;;;;;;;5032770;28;20203;-86
2021/09/14 01:15:33;;;;;;;5.97;5.47;;;;;;;;;;5032578;28;20218;-86
2021/09/14 01:17:59;;;;;;;5.97;5.47;;;;;;;;;;5032139;28;20220;-86
2021/09/14 01:20:26;;;;;;;6.70;5.87;;;;;;;;;;5031968;28;20841;-86
2021/09/14 01:22:54;;;;;;;6.07;5.50;;;;;;;;;;5032615;28;20254;-86
2021/09/14 01:25:22;;;;;;;6.20;5.60;;;;;;;;;;5032448;28;20208;-86
2021/09/14 01:27:50;;;;;;;5.77;5.37;;;;;;;;;;5032368;28;20236;-86
2021/09/14 01:30:19;;;;;;;5.50;5.00;;;;;;;;;;5033634;28;20676;-86
2021/09/14 01:32:47;;;;;;;5.73;5.37;;;;;;;;;;5031718;28;20235;-86
2021/09/14 01:35:16;;;;;;;5.53;4.87;;;;;;;;;;5032253;28;20196;-86
2021/09/14 01:37:42;;;;;;;6.00;5.40;;;;;;;;;;5031394;28;20703;-86
2021/09/14 01:40:11;;;;;;;7.40;5.87;;;;;;;;;;5031783;28;20204;-86
2021/09/14 01:42:38;;;;;;;6.13;5.33;;;;;;;;;;5033066;28;20246;-86
2021/09/14 01:45:05;;;;;;;5.43;5.10;;;;;;;;;;5031614;28;20208;-86
2021/09/14 01:47:32;;;;;;;5.93;5.40;;;;;;;;;;5030966;28;20265;-85
2021/09/14 01:49:59;;;;;;;6.03;5.53;;;;;;;;;;5031453;28;20289;-86
2021/09/14 01:52:27;;;;;;;12.43;5.90;;;;;;;;;;5031584;28;20231;-86
2021/09/14 01:54:54;;;;;;;6.00;5.50;;;;;;;;;;5032874;28;20204;-86
2021/09/14 01:57:26;;;;;;;7.33;5.33;;;;;;;;;;5031485;28;20247;-85
2021/09/14 01:59:55;;;;;;;5.60;5.10;;;;;;;;;;5033086;28;20564;-86
2021/09/14 02:02:30;;;;;;;5.63;5.13;;;;;;;;;;5031151;28;20207;-84
2021/09/14 02:05:00;;;;;;;5.60;5.30;;;;;;;;;;5031600;28;20196;-86
2021/09/14 02:07:43;;;;;;;5.80;5.30;;;;;;;;;;5032422;28;20708;-86
2021/09/14 02:43:38;;;;;;;7.30;5.70;;;;;;;;;;5012953;28;20591;-86
2021/09/14 02:59:46;;;;;;;5.93;5.47;;;;;;;;;;5037500;28;20229;-85
2021/09/14 03:02:14;;;;;;;7.00;5.53;;;;;;;;;;5054581;28;20215;-85
2021/09/14 03:04:41;;;;;;;6.47;5.73;;;;;;;;;;5054740;28;20207;-85
2021/09/14 03:07:07;;;;;;;6.07;5.47;;;;;;;;;;5036562;28;20671;-86
2021/09/14 03:09:34;;;;;;;6.57;5.97;;;;;;;;;;5054857;28;20219;-85
2021/09/14 03:12:01;;;;;;;7.87;6.60;;;;;;;;;;5037236;28;20215;-85
2021/09/14 03:14:27;;;;;;;7.00;6.07;;;;;;;;;;5036964;28;20198;-85
2021/09/14 03:16:54;;;;;;;8.83;6.13;;;;;;;;;;5036792;28;20669;-85
2021/09/14 03:19:22;;;;;;;6.73;5.93;;;;;;;;;;5054430;28;20191;-85
2021/09/14 03:21:48;;;;;;;6.50;5.83;;;;;;;;;;5055134;28;20199;-85
2021/09/14 03:24:15;;;;;;;6.43;5.83;;;;;;;;;;5054477;28;20234;-85
2021/09/14 03:26:42;;;;;;;7.70;6.67;;;;;;;;;;5054061;28;20277;-85
2021/09/14 03:29:08;;;;;;;9.83;6.40;;;;;;;;;;5036658;28;20223;-86
2021/09/14 03:31:36;;;;;;;7.90;6.53;;;;;;;;;;5036450;28;20348;-85
2021/09/14 03:34:03;;;;;;;8.27;6.43;;;;;;;;;;5036559;28;20211;-85
2021/09/14 03:36:31;;;;;;;6.63;5.93;;;;;;;;;;5036237;28;20234;-85
2021/09/14 03:38:57;;;;;;;6.77;6.27;;;;;;;;;;5054281;28;20212;-85
2021/09/14 03:41:24;;;;;;;7.30;6.60;;;;;;;;;;5054073;28;20203;-85
2021/09/14 03:43:51;;;;;;;6.83;6.23;;;;;;;;;;5036103;28;20335;-85
2021/09/14 03:46:17;;;;;;;7.67;6.40;;;;;;;;;;5035744;28;20234;-86
2021/09/14 03:48:44;;;;;;;7.07;6.40;;;;;;;;;;5035520;28;20310;-85
2021/09/14 03:51:11;;;;;;;9.80;6.13;;;;;;;;;;5035313;28;20227;-85
2021/09/14 03:53:39;;;;;;;6.80;6.10;;;;;;;;;;5036658;28;20203;-86
2021/09/14 03:56:05;;;;;;;6.53;5.93;;;;;;;;;;5036123;28;20199;-85
2021/09/14 03:58:32;;;;;;;6.73;6.03;;;;;;;;;;5053848;28;20341;-85
2021/09/14 04:00:59;;;;;;;13.50;6.57;;;;;;;;;;5053514;28;20211;-85
2021/09/14 04:03:37;;;;;;;6.90;6.30;;;;;;;;;;5035837;28;20214;-85
2021/09/14 04:08:54;;;;;;;7.37;6.20;;;;;;;;;;5035886;28;20590;-85
2021/09/14 04:11:22;;;;;;;6.80;6.20;;;;;;;;;;5053967;28;20230;-85
2021/09/14 04:13:49;;;;;;;6.90;6.00;;;;;;;;;;5036330;28;20652;-86
2021/09/14 04:16:16;;;;;;;7.10;6.40;;;;;;;;;;5036114;28;20261;-85
2021/09/14 04:18:42;;;;;;;7.53;6.50;;;;;;;;;;5036083;28;20247;-86
2021/09/14 04:21:09;;;;;;;6.90;6.10;;;;;;;;;;5036427;28;20647;-85
2021/09/14 04:23:36;;;;;;;7.40;6.40;;;;;;;;;;5035187;28;20192;-85
2021/09/14 04:26:04;;;;;;;8.07;6.73;;;;;;;;;;5052977;28;20250;-85
2021/09/14 04:28:31;;;;;;;6.97;6.37;;;;;;;;;;5052896;28;20242;-86
2021/09/14 04:30:58;;;;;;;7.03;6.37;;;;;;;;;;5052800;28;20227;-86
2021/09/14 04:33:25;;;;;;;7.13;6.43;;;;;;;;;;5035326;28;20234;-86
2021/09/14 04:35:52;;;;;;;6.60;6.00;;;;;;;;;;5035250;28;20203;-85
2021/09/14 04:38:19;;;;;;;8.57;6.33;;;;;;;;;;5053203;28;20227;-85
2021/09/14 04:40:46;;;;;;;7.60;6.57;;;;;;;;;;5035047;28;20199;-85
2021/09/14 04:43:14;;;;;;;9.13;7.00;;;;;;;;;;5052498;28;20211;-85
2021/09/14 04:45:40;;;;;;;7.73;6.17;;;;;;;;;;5052453;28;20239;-84
2021/09/14 04:48:07;;;;;;;7.13;6.27;;;;;;;;;;5053122;28;20195;-86
2021/09/14 04:50:33;;;;;;;7.10;6.33;;;;;;;;;;5035445;28;20222;-86
2021/09/14 04:53:02;;;;;;;7.03;6.33;;;;;;;;;;5035738;28;20195;-85
2021/09/14 04:55:29;;;;;;;7.90;7.10;;;;;;;;;;5035930;28;20245;-85
2021/09/14 04:57:55;;;;;;;9.70;7.20;;;;;;;;;;5035423;28;20297;-85
2021/09/14 05:00:24;;;;;;;7.27;6.67;;;;;;;;;;5035933;28;20222;-85
2021/09/14 05:02:50;;;;;;;7.17;6.47;;;;;;;;;;5035560;28;20188;-84
2021/09/14 05:05:17;;;;;;;8.50;6.90;;;;;;;;;;5052503;28;20211;-85
2021/09/14 05:07:44;;;;;;;7.23;6.63;;;;;;;;;;5035491;28;20520;-84
2021/09/14 05:10:11;;;;;;;9.03;6.33;;;;;;;;;;5034855;28;20599;-85
2021/09/14 05:12:37;;;;;;;7.17;6.47;;;;;;;;;;5035737;28;20230;-85
2021/09/14 05:15:04;;;;;;;7.60;6.80;;;;;;;;;;5035207;28;20678;-85
2021/09/14 05:17:32;;;;;;;8.43;6.80;;;;;;;;;;5053047;28;20223;-85
2021/09/14 05:20:00;;;;;;;7.57;6.53;;;;;;;;;;5052646;28;20180;-83
2021/09/14 05:22:31;;;;;;;10.13;7.07;;;;;;;;;;5052432;28;20655;-83
2021/09/14 05:24:58;;;;;;;8.77;6.60;;;;;;;;;;5034128;28;20261;-83
2021/09/14 05:27:25;;;;;;;7.93;7.13;;;;;;;;;;5033947;28;20203;-83
2021/09/14 05:29:51;;;;;;;7.80;7.10;;;;;;;;;;5034004;28;20199;-83
2021/09/14 05:32:18;;;;;;;7.03;6.43;;;;;;;;;;5051840;28;20250;-83
2021/09/14 05:34:46;;;;;;;8.23;7.43;;;;;;;;;;5053217;28;20176;-85
2021/09/14 05:37:13;;;;;;;8.60;7.20;;;;;;;;;;5035552;28;20207;-84
2021/09/14 05:39:40;;;;;;;7.73;6.87;;;;;;;;;;5052296;28;20258;-84
2021/09/14 05:42:07;;;;;;;9.07;7.17;;;;;;;;;;5035263;28;20660;-83
2021/09/14 05:44:35;;;;;;;7.97;6.93;;;;;;;;;;5038680;28;20230;-85
2021/09/14 05:47:01;;;;;;;8.27;7.30;;;;;;;;;;5039365;28;20191;-85
2021/09/14 05:49:28;;;;;;;8.03;7.33;;;;;;;;;;5037759;28;20547;-83
2021/09/14 05:51:56;;;;;;;12.40;7.97;;;;;;;;;;5037708;28;20203;-87
2021/09/14 05:54:23;;;;;;;9.43;7.60;;;;;;;;;;5056255;28;20215;-83
2021/09/14 05:56:49;;;;;;;9.87;7.70;;;;;;;;;;5038265;28;20241;-84
2021/09/14 05:59:16;;;;;;;7.73;6.93;;;;;;;;;;5038077;28;20242;-83
2021/09/14 06:01:42;;;;;;;10.17;7.37;;;;;;;;;;5038391;28;20659;-85
2021/09/14 06:04:09;;;;;;;10.57;7.07;;;;;;;;;;5038756;28;20191;-84
2021/09/14 06:06:36;;;;;;;9.20;7.00;;;;;;;;;;5037972;28;20203;-84
2021/09/14 06:09:04;;;;;;;7.33;6.67;;;;;;;;;;5038656;28;20219;-85
2021/09/14 06:11:30;;;;;;;9.93;6.77;;;;;;;;;;5037972;28;20207;-84
2021/09/14 06:13:57;;;;;;;7.90;7.17;;;;;;;;;;5038002;28;20245;-84
2021/09/14 06:16:24;;;;;;;8.17;7.07;;;;;;;;;;5055285;28;20235;-84
2021/09/14 06:18:50;;;;;;;7.67;6.87;;;;;;;;;;5037225;28;20235;-84
2021/09/14 06:21:17;;;;;;;8.73;6.80;;;;;;;;;;5055300;28;20239;-84
2021/09/14 06:23:44;;;;;;;9.60;6.87;;;;;;;;;;5038073;28;20562;-85
2021/09/14 06:26:12;;;;;;;8.47;7.03;;;;;;;;;;5037441;28;20583;-84
2021/09/14 06:28:38;;;;;;;8.13;7.07;;;;;;;;;;5037199;28;20640;-82
2021/09/14 06:31:05;;;;;;;7.70;6.20;;;;;;;;;;5033070;28;20264;-82
2021/09/14 06:33:32;;;;;;;8.50;6.73;;;;;;;;;;5032850;28;20211;-82
2021/09/14 06:35:58;;;;;;;7.33;6.63;;;;;;;;;;5033452;28;20216;-83
2021/09/14 06:38:25;;;;;;;7.50;6.80;;;;;;;;;;5033553;28;20708;-87
2021/09/14 06:40:52;;;;;;;7.30;6.50;;;;;;;;;;5033563;28;20234;-84
2021/09/14 06:43:20;;;;;;;9.87;7.10;;;;;;;;;;5034880;28;20184;-85
2021/09/14 06:45:47;;;;;;;7.83;7.23;;;;;;;;;;5034834;28;20180;-84
2021/09/14 06:48:16;;;;;;;8.57;7.77;;;;;;;;;;5033345;28;20633;-83
2021/09/14 06:50:43;;;;;;;8.13;7.03;;;;;;;;;;5032990;28;20224;-84
2021/09/14 06:53:10;;;;;;;7.83;7.03;;;;;;;;;;5034336;28;20239;-85
2021/09/14 06:55:37;;;;;;;11.00;7.57;;;;;;;;;;5033991;28;20209;-84
2021/09/14 06:58:04;;;;;;;8.30;6.90;;;;;;;;;;5033065;28;20562;-86
2021/09/14 07:00:32;;;;;;;7.83;6.90;;;;;;;;;;5034443;28;20636;-85
2021/09/14 07:02:58;;;;;;;8.97;7.50;;;;;;;;;;5034412;28;20548;-85
2021/09/14 07:05:25;;;;;;;7.93;7.13;;;;;;;;;;5032663;28;20659;-84
2021/09/14 07:07:52;;;;;;;12.57;7.27;;;;;;;;;;5032915;28;20196;-87
2021/09/14 07:10:19;;;;;;;8.40;7.60;;;;;;;;;;5033029;28;20683;-85
2021/09/14 07:12:46;;;;;;;11.07;7.37;;;;;;;;;;5033111;28;20197;-85
2021/09/14 07:15:12;;;;;;;8.47;7.47;;;;;;;;;;5034398;28;20204;-83
2021/09/14 07:17:43;;;;;;;8.20;7.43;;;;;;;;;;5035587;28;20617;-86
2021/09/14 07:20:10;;;;;;;13.83;8.37;;;;;;;;;;5033372;28;20212;-85
2021/09/14 07:22:37;;;;;;;8.70;7.80;;;;;;;;;;5033309;28;20204;-85
2021/09/14 07:25:04;;;;;;;9.87;7.47;;;;;;;;;;5033097;28;20231;-85
2021/09/14 07:27:31;;;;;;;8.33;7.47;;;;;;;;;;5032764;28;20247;-84
2021/09/14 07:29:57;;;;;;;8.27;7.33;;;;;;;;;;5033750;28;20204;-83
2021/09/14 07:32:24;;;;;;;8.60;7.70;;;;;;;;;;5030743;28;20346;-86
2021/09/14 07:34:52;;;;;;;9.57;7.63;;;;;;;;;;5032679;28;20200;-87
2021/09/14 07:37:19;;;;;;;8.97;7.93;;;;;;;;;;5036157;28;20203;-86
2021/09/14 07:39:46;;;;;;;9.57;7.77;;;;;;;;;;5053826;28;20623;-87
2021/09/14 07:42:12;;;;;;;8.73;7.30;;;;;;;;;;5035991;28;20234;-86
2021/09/14 07:44:39;;;;;;;9.70;8.10;;;;;;;;;;5035933;28;20673;-86
2021/09/14 07:47:05;;;;;;;9.43;8.03;;;;;;;;;;5035539;28;20234;-86
2021/09/14 07:49:32;;;;;;;10.20;7.80;;;;;;;;;;5035277;28;20222;-86
2021/09/14 07:52:00;;;;;;;8.47;7.67;;;;;;;;;;5035659;28;20233;-86
2021/09/14 07:54:27;;;;;;;8.17;7.23;;;;;;;;;;5035505;28;20199;-86
2021/09/14 07:56:54;;;;;;;9.95;7.13;;;;;;;;;;5035141;28;20211;-86
2021/09/14 07:59:20;;;;;;;9.23;7.97;;;;;;;;;;5034974;28;20243;-86
2021/09/14 08:01:47;;;;;;;9.45;7.47;;;;;;;;;;5034767;28;20223;-85
2021/09/14 08:04:14;;;;;;;10.83;7.83;;;;;;;;;;5052964;28;20214;-86
2021/09/14 08:06:40;;;;;;;8.67;7.77;;;;;;;;;;5034662;28;20224;-85
2021/09/14 08:09:08;;;;;;;8.77;7.07;;;;;;;;;;5052996;28;20172;-86
2021/09/14 08:11:35;;;;;;;13.47;7.67;;;;;;;;;;5034690;28;20257;-85
2021/09/14 08:14:02;;;;;;;12.27;7.43;;;;;;;;;;5035148;28;20223;-85
2021/09/14 08:16:29;;;;;;;11.57;6.77;;;;;;;;;;5034910;28;20195;-85
2021/09/14 08:18:55;;;;;;;11.52;7.30;;;;;;;;;;5034651;28;20251;-85
2021/09/14 08:21:23;;;;;;;8.90;7.15;;;;;;;;;;5052438;28;20595;-85
2021/09/14 08:23:49;;;;;;;8.00;7.18;;;;;;;;;;5034966;28;20199;-85
2021/09/14 08:26:17;;;;;;;7.95;7.15;;;;;;;;;;5034448;28;20195;-85
2021/09/14 08:28:55;;;;;;;7.35;6.65;;;;;;;;;;5130226;27;20773;-84
2021/09/14 08:31:22;;;;;;;8.40;7.60;;;;;;;;;;5109003;28;20236;-85
2021/09/14 08:33:49;;;;;;;8.32;7.35;;;;;;;;;;5091196;28;20675;-85
2021/09/14 08:36:16;;;;;;;8.63;7.82;;;;;;;;;;5091144;28;20232;-84
2021/09/14 08:38:44;;;;;;;8.38;7.47;;;;;;;;;;5109722;28;20668;-84
2021/09/14 08:41:12;;;;;;;9.10;8.23;;;;;;;;;;5091402;28;20196;-85
2021/09/14 08:43:41;;;;;;;8.68;7.78;;;;;;;;;;5091723;28;20189;-84
2021/09/14 08:46:10;;;;;;;10.02;8.18;;;;;;;;;;5091361;28;20221;-84
2021/09/14 08:48:37;;;;;;;8.30;7.50;;;;;;;;;;5109542;28;20673;-84
2021/09/14 08:51:03;;;;;;;9.13;7.97;;;;;;;;;;5077623;28;20253;-84
2021/09/14 08:53:31;;;;;;;8.18;7.40;;;;;;;;;;5070866;28;20243;-85
2021/09/14 08:55:58;;;;;;;7.68;6.97;;;;;;;;;;5070920;28;20711;-84
2021/09/14 08:58:24;;;;;;;10.70;7.43;;;;;;;;;;5070895;28;20190;-84
2021/09/14 09:00:52;;;;;;;7.85;7.10;;;;;;;;;;5071005;28;20206;-84
2021/09/14 09:03:23;;;;;;;13.00;7.80;;;;;;;;;;5070546;28;20252;-84
2021/09/14 09:05:50;;;;;;;8.27;6.90;;;;;;;;;;5070688;28;20674;-84
2021/09/14 09:08:18;;;;;;;8.68;7.80;;;;;;;;;;5070756;28;20297;-83
2021/09/14 09:10:47;;;;;;;9.88;7.63;;;;;;;;;;5070785;28;20221;-84
2021/09/14 09:13:13;;;;;;;8.50;7.70;;;;;;;;;;5070378;28;20291;-84
2021/09/14 09:15:40;;;;;;;12.70;7.72;;;;;;;;;;5070408;28;20259;-85
2021/09/14 09:18:07;;;;;;;7.70;6.88;;;;;;;;;;5070879;28;20178;-84
2021/09/14 09:20:36;;;;;;;8.02;7.13;;;;;;;;;;5090227;28;20210;-85
2021/09/14 09:23:05;;;;;;;7.72;7.03;;;;;;;;;;5074711;28;20607;-84
2021/09/14 09:25:32;;;;;;;8.68;6.50;;;;;;;;;;5073424;28;20191;-85
2021/09/14 09:28:07;;;;;;;10.30;6.80;;;;;;;;;;5066645;28;20315;-84
2021/09/14 09:30:36;;;;;;;7.95;6.95;;;;;;;;;;5067526;28;20209;-84
2021/09/14 09:33:03;;;;;;;7.22;6.53;;;;;;;;;;5068301;28;20211;-86
2021/09/14 09:35:31;;;;;;;12.13;6.93;;;;;;;;;;5066832;28;20187;-84
2021/09/14 09:38:00;;;;;;;9.27;6.45;;;;;;;;;;5067079;28;20643;-84
2021/09/14 09:40:30;;;;;;;7.60;6.40;;;;;;;;;;5054745;28;20203;-84
2021/09/14 09:42:57;;;;;;;9.20;6.55;;;;;;;;;;5059775;28;20249;-83
2021/09/14 09:45:23;;;;;;;6.90;6.30;;;;;;;;;;5054307;28;20601;-83
2021/09/14 09:47:50;;;;;;;8.23;6.07;;;;;;;;;;5052522;28;20618;-80
2021/09/14 09:50:17;;;;;;;8.50;6.20;;;;;;;;;;5052227;28;20639;-80
2021/09/14 09:52:44;;;;;;;6.60;6.10;;;;;;;;;;5052507;28;20555;-79
2021/09/14 09:55:13;;;;;;;6.60;6.00;;;;;;;;;;5052090;28;20199;-80
2021/09/14 09:57:40;;;;;;;7.82;6.10;;;;;;;;;;5052252;28;20646;-79
2021/09/14 10:00:09;;;;;;;6.40;5.90;;;;;;;;;;5052437;28;20231;-80
2021/09/14 10:02:40;;;;;;;7.53;5.90;;;;;;;;;;5053402;28;20258;-80
2021/09/14 10:05:09;;;;;;;6.60;5.97;;;;;;;;;;5051550;28;20223;-80
2021/09/14 10:07:36;;;;;;;8.80;5.57;;;;;;;;;;5052833;28;20239;-80
2021/09/14 10:10:03;;;;;;;6.65;5.40;;;;;;;;;;5051729;28;20651;-80
2021/09/14 10:12:32;;;;;;;8.48;5.90;;;;;;;;;;5051031;28;20234;-78
2021/09/14 10:15:04;;;;;;;6.35;5.47;;;;;;;;;;5053359;28;20211;-81
2021/09/14 10:17:31;;;;;;;7.50;5.60;;;;;;;;;;5051612;28;20230;-80
2021/09/14 10:20:09;;;;;;;7.72;5.38;;;;;;;;;;5051855;28;20219;-81
2021/09/14 10:22:35;;;;;;;5.97;5.13;;;;;;;;;;5053767;28;20187;-81
2021/09/14 10:25:04;;;;;;;7.65;5.18;;;;;;;;;;5053258;28;20215;-81
2021/09/14 10:27:38;;;;;;;7.40;6.25;;;;;;;;;;5051632;28;20718;-80
2021/09/14 10:30:06;;;;;;;6.43;5.68;;;;;;;;;;5053149;28;20246;-79
2021/09/14 10:32:39;;;;;;;9.57;6.10;;;;;;;;;;5052050;28;20226;-79
2021/09/14 10:35:07;;;;;;;6.47;5.82;;;;;;;;;;5053166;28;20230;-80
2021/09/14 10:37:34;;;;;;;8.43;5.43;;;;;;;;;;5052824;28;20239;-81
2021/09/14 10:40:06;;;;;;;6.30;5.22;;;;;;;;;;5053349;28;20207;-82
2021/09/14 10:42:35;;;;;;;8.85;5.90;;;;;;;;;;5051431;28;20265;-80
2021/09/14 10:45:08;;;;;;;6.10;5.50;;;;;;;;;;5053276;28;20227;-81
2021/09/14 10:47:36;;;;;;;8.95;6.00;;;;;;;;;;5052491;28;20207;-81
2021/09/14 10:50:04;;;;;;;8.10;5.68;;;;;;;;;;5051038;28;20245;-78
2021/09/14 10:52:31;;;;;;;5.93;5.43;;;;;;;;;;5051490;28;20196;-81
2021/09/14 10:54:59;;;;;;;6.55;5.55;;;;;;;;;;5051160;28;20207;-81
2021/09/14 10:57:32;;;;;;;5.68;5.05;;;;;;;;;;5052724;28;20238;-79
2021/09/14 10:59:58;;;;;;;7.32;5.22;;;;;;;;;;5051775;28;20224;-79
2021/09/14 11:02:26;;;;;;;9.65;5.30;;;;;;;;;;5050895;28;20243;-80
2021/09/14 11:04:55;;;;;;;9.15;5.57;;;;;;;;;;5051301;28;20215;-82
2021/09/14 11:07:22;;;;;;;6.25;5.63;;;;;;;;;;5051727;28;20196;-83
2021/09/14 11:09:52;;;;;;;8.90;5.40;;;;;;;;;;5051339;28;20281;-80
2021/09/14 11:12:20;;;;;;;6.38;4.80;;;;;;;;;;5051159;28;20191;-83
2021/09/14 11:14:46;;;;;;;5.82;5.40;;;;;;;;;;5052636;28;20237;-81
2021/09/14 11:17:22;;;;;;;9.60;5.00;;;;;;;;;;5051347;28;20231;-80
2021/09/14 11:19:51;;;;;;;6.30;4.35;;;;;;;;;;5052459;28;20172;-81
2021/09/14 11:22:27;;;;;;;7.05;4.88;;;;;;;;;;5052345;28;20245;-82
2021/09/14 11:24:54;;;;;;;5.35;4.85;;;;;;;;;;5051822;28;20234;-82
2021/09/14 11:27:22;;;;;;;5.45;4.65;;;;;;;;;;5050673;28;20239;-81
2021/09/14 11:29:49;;;;;;;7.10;4.43;;;;;;;;;;5050984;28;20607;-82
2021/09/14 11:32:15;;;;;;;7.30;4.10;;;;;;;;;;5052448;28;20238;-82
2021/09/14 11:34:42;;;;;;;6.93;4.05;;;;;;;;;;5052108;28;20217;-81
2021/09/14 11:37:10;;;;;;;7.78;3.90;;;;;;;;;;5052106;28;20238;-82
2021/09/14 11:39:38;;;;;;;8.00;4.03;;;;;;;;;;5052055;28;20243;-82
2021/09/14 11:42:08;;;;;;;8.50;4.00;;;;;;;;;;5050555;28;20230;-81
2021/09/14 11:44:35;;;;;;;6.28;3.65;;;;;;;;;;5050967;28;20196;-82
2021/09/14 11:47:07;;;;;;;5.47;4.32;;;;;;;;;;5050678;28;20207;-83
2021/09/14 11:49:33;;;;;;;7.90;4.00;;;;;;;;;;5050594;28;20241;-81
2021/09/14 11:52:00;;;;;;;5.15;3.75;;;;;;;;;;5051933;28;20211;-81
2021/09/14 11:54:32;;;;;;;5.53;3.83;;;;;;;;;;5051669;28;20247;-81
2021/09/14 11:56:59;;;;;;;4.97;4.00;;;;;;;;;;5051832;28;20210;-82
2021/09/14 11:59:30;;;;;;;4.55;4.00;;;;;;;;;;5051791;28;20284;-81
2021/09/14 12:01:56;;;;;;;4.22;4.03;;;;;;;;;;5049897;28;20226;-82
2021/09/14 12:04:23;;;;;;;4.00;3.70;;;;;;;;;;5051675;28;20558;-77
2021/09/14 12:06:50;;;;;;;3.60;3.40;;;;;;;;;;5051989;28;20322;-78
2021/09/14 12:09:18;;;;;;;5.57;3.50;;;;;;;;;;5050543;28;20250;-83
2021/09/14 12:11:46;;;;;;;5.82;3.90;;;;;;;;;;5051509;28;20240;-78
2021/09/14 12:14:19;;;;;;;4.25;3.85;;;;;;;;;;5051407;28;20179;-78
2021/09/14 12:16:52;;;;;;;3.90;3.50;;;;;;;;;;5050179;28;20551;-80
2021/09/14 12:19:19;;;;;;;4.13;3.63;;;;;;;;;;5051478;28;20176;-81
2021/09/14 12:21:45;;;;;;;4.03;3.42;;;;;;;;;;5051226;28;20238;-81
2021/09/14 12:24:12;;;;;;;4.43;3.90;;;;;;;;;;5051505;28;20211;-80
2021/09/14 12:26:40;;;;;;;7.47;3.30;;;;;;;;;;5051684;28;20223;-80
2021/09/14 12:29:09;;;;;;;4.18;3.38;;;;;;;;;;5052888;28;20248;-79
2021/09/14 12:31:36;;;;;;;4.50;3.83;;;;;;;;;;5053205;28;20186;-82
2021/09/14 12:34:02;;;;;;;4.15;3.38;;;;;;;;;;5052496;28;20246;-81
2021/09/14 12:36:29;;;;;;;3.88;3.15;;;;;;;;;;5070735;28;20211;-81
2021/09/14 12:38:56;;;;;;;3.90;3.40;;;;;;;;;;5060242;28;20234;-81
2021/09/14 12:41:22;;;;;;;4.25;3.60;;;;;;;;;;5032827;28;20227;-82
2021/09/14 12:43:50;;;;;;;3.58;3.28;;;;;;;;;;5050818;28;20191;-82
2021/09/14 12:46:19;;;;;;;3.90;3.60;;;;;;;;;;5050809;28;20207;-82
2021/09/14 12:48:45;;;;;;;6.30;3.75;;;;;;;;;;5032730;28;20776;-81
2021/09/14 12:51:12;;;;;;;4.15;3.63;;;;;;;;;;5050824;28;20288;-81
2021/09/14 12:53:39;;;;;;;3.83;3.50;;;;;;;;;;5032353;28;20226;-81
2021/09/14 12:56:06;;;;;;;3.70;3.40;;;;;;;;;;5032521;28;20214;-81
2021/09/14 12:58:33;;;;;;;4.00;3.70;;;;;;;;;;5032536;28;20593;-82
2021/09/14 13:00:59;;;;;;;3.72;3.40;;;;;;;;;;5032783;28;20253;-82
2021/09/14 13:03:27;;;;;;;4.10;3.28;;;;;;;;;;5050421;28;20230;-82
2021/09/14 13:05:54;;;;;;;3.70;3.50;;;;;;;;;;5032965;28;20282;-81
2021/09/14 13:08:21;;;;;;;3.63;3.30;;;;;;;;;;5032638;28;20188;-81
2021/09/14 13:10:48;;;;;;;3.15;2.95;;;;;;;;;;5050681;28;20258;-81
2021/09/14 13:16:15;;;;;;;3.53;2.80;;;;;;;;;;5036463;28;20252;-80
2021/09/14 13:18:43;;;;;;;3.33;2.95;;;;;;;;;;5036316;28;20223;-81
2021/09/14 13:21:10;;;;;;;3.70;3.00;;;;;;;;;;5054088;28;20206;-81
2021/09/14 13:23:37;;;;;;;3.25;3.00;;;;;;;;;;5053910;28;20231;-80
2021/09/14 13:26:05;;;;;;;2.97;2.78;;;;;;;;;;5053935;28;20257;-81
2021/09/14 13:28:32;;;;;;;7.47;2.80;;;;;;;;;;5053694;28;20266;-80
2021/09/14 13:30:59;;;;;;;5.55;3.08;;;;;;;;;;5036202;28;20252;-81
2021/09/14 13:33:25;;;;;;;3.95;3.00;;;;;;;;;;5054523;28;20214;-81
2021/09/14 13:35:53;;;;;;;4.45;3.00;;;;;;;;;;5036347;28;20213;-85
2021/09/14 13:38:20;;;;;;;4.57;3.08;;;;;;;;;;5036606;28;20486;-84
2021/09/14 13:40:49;;;;;;;6.10;3.50;;;;;;;;;;5054553;28;20203;-85
2021/09/14 13:43:22;;;;;;;4.47;3.28;;;;;;;;;;5036560;28;20207;-86
2021/09/14 13:48:33;;;;;;;3.45;3.15;;;;;;;;;;5054556;28;20570;-85
2021/09/14 13:51:03;;;;;;;3.38;3.08;;;;;;;;;;5036207;28;20259;-85
2021/09/14 13:53:30;;;;;;;5.22;3.17;;;;;;;;;;5053826;28;20321;-85
2021/09/14 13:55:56;;;;;;;4.10;3.28;;;;;;;;;;5036472;28;20215;-85
2021/09/14 13:58:23;;;;;;;3.75;2.92;;;;;;;;;;5036224;28;20199;-84
2021/09/14 14:00:50;;;;;;;3.15;2.95;;;;;;;;;;5035645;28;20231;-86
2021/09/14 14:03:16;;;;;;;7.35;3.17;;;;;;;;;;5054436;28;20246;-86
2021/09/14 14:05:43;;;;;;;3.90;2.90;;;;;;;;;;5053830;28;20200;-86
2021/09/14 14:08:11;;;;;;;3.28;3.00;;;;;;;;;;5054049;28;20432;-86
2021/09/14 14:10:38;;;;;;;3.63;3.38;;;;;;;;;;5035243;28;20522;-85
2021/09/14 14:13:04;;;;;;;3.35;3.15;;;;;;;;;;5035879;28;20277;-87
2021/09/14 14:15:31;;;;;;;4.22;3.92;;;;;;;;;;5035436;28;20230;-86
2021/09/14 14:17:58;;;;;;;5.28;3.30;;;;;;;;;;5035591;28;20274;-87
2021/09/14 14:20:24;;;;;;;4.95;3.20;;;;;;;;;;5035498;28;20729;-88
2021/09/14 14:22:51;;;;;;;3.70;3.20;;;;;;;;;;5036188;28;20188;-88
2021/09/14 14:25:19;;;;;;;3.38;3.10;;;;;;;;;;5053306;28;20254;-88
2021/09/14 14:27:46;;;;;;;5.05;3.22;;;;;;;;;;5049272;28;20227;-87
2021/09/14 14:30:13;;;;;;;3.88;2.75;;;;;;;;;;5031803;28;20252;-87
2021/09/14 14:32:39;;;;;;;3.03;2.80;;;;;;;;;;5032023;28;20231;-87
2021/09/14 14:35:06;;;;;;;3.47;3.20;;;;;;;;;;5031549;28;20343;-85
2021/09/14 14:37:33;;;;;;;2.80;2.55;;;;;;;;;;5032422;28;20258;-85
2021/09/14 14:39:59;;;;;;;3.33;3.00;;;;;;;;;;5034095;28;20208;-84
2021/09/14 14:42:27;;;;;;;4.43;2.60;;;;;;;;;;5031833;28;20200;-84
2021/09/14 14:44:54;;;;;;;3.92;2.80;;;;;;;;;;5032088;28;20223;-83
2021/09/14 14:47:21;;;;;;;3.75;3.45;;;;;;;;;;5031895;28;20227;-86
2021/09/14 14:49:48;;;;;;;4.63;3.15;;;;;;;;;;5033281;28;20247;-83
2021/09/14 14:52:15;;;;;;;3.95;3.40;;;;;;;;;;5031804;28;20578;-84
2021/09/14 14:54:41;;;;;;;4.68;3.22;;;;;;;;;;5033195;28;20215;-84
2021/09/14 14:57:08;;;;;;;5.05;3.50;;;;;;;;;;5031385;28;20208;-83
2021/09/14 14:59:36;;;;;;;4.40;4.00;;;;;;;;;;5032104;28;20592;-83
2021/09/14 15:02:03;;;;;;;4.40;3.55;;;;;;;;;;5032851;28;20240;-84
2021/09/14 15:04:29;;;;;;;6.47;3.08;;;;;;;;;;5031295;28;20212;-84
2021/09/14 15:06:56;;;;;;;4.75;3.38;;;;;;;;;;5032931;28;20243;-83
2021/09/14 15:09:23;;;;;;;3.10;2.90;;;;;;;;;;5031037;28;20254;-84
2021/09/14 15:11:49;;;;;;;5.55;3.03;;;;;;;;;;5032520;28;20236;-85
2021/09/14 15:14:16;;;;;;;3.92;3.25;;;;;;;;;;5032984;28;20208;-84
2021/09/14 15:16:44;;;;;;;4.45;3.28;;;;;;;;;;5032649;28;20242;-83
2021/09/14 15:19:11;;;;;;;5.18;3.40;;;;;;;;;;5032452;28;20212;-84
2021/09/14 15:21:38;;;;;;;3.50;3.20;;;;;;;;;;5031163;28;20242;-82
2021/09/14 15:24:05;;;;;;;4.15;3.58;;;;;;;;;;5032397;28;20211;-83
2021/09/14 15:26:32;;;;;;;8.07;3.53;;;;;;;;;;5032324;28;20265;-83
2021/09/14 15:28:59;;;;;;;6.47;3.47;;;;;;;;;;5034299;28;20227;-82
2021/09/14 15:31:25;;;;;;;3.67;3.42;;;;;;;;;;5034333;28;20271;-83
2021/09/14 15:33:53;;;;;;;3.83;3.28;;;;;;;;;;5034257;28;20616;-83
2021/09/14 15:36:20;;;;;;;4.22;3.47;;;;;;;;;;5033331;28;20231;-83
2021/09/14 15:38:47;;;;;;;4.03;3.53;;;;;;;;;;5034209;28;20262;-83
2021/09/14 15:41:14;;;;;;;3.50;3.15;;;;;;;;;;5033920;28;20230;-83